createdAt,value
2019-02-17T00:00:59.155Z,81.23
2019-02-17T00:01:59.077Z,81.54
2019-02-17T00:02:59.090Z,81.65
2019-02-17T00:03:59.080Z,81.85
2019-02-17T00:04:59.049Z,81.96
2019-02-17T00:05:59.036Z,82.17
2019-02-17T00:06:59.022Z,82.37
2019-02-17T00:07:59.010Z,81.96
2019-02-17T00:08:59.086Z,81.75
2019-02-17T00:09:59.000Z,82.06
2019-02-17T00:10:58.988Z,81.85
2019-02-17T00:11:58.983Z,81.85
2019-02-17T00:12:58.959Z,81.75
2019-02-17T00:13:58.971Z,82.48
2019-02-17T00:14:58.934Z,82.89
2019-02-17T00:15:58.948Z,82.58
2019-02-17T00:16:58.914Z,81.85
2019-02-17T00:17:58.905Z,82.89
2019-02-17T00:18:58.909Z,81.92
2019-02-17T00:19:58.890Z,81.57
2019-02-17T00:20:58.865Z,80.43
2019-02-17T00:21:58.887Z,80.29
2019-02-17T00:22:58.849Z,79.50
2019-02-17T00:23:58.857Z,80.08
2019-02-17T00:24:58.821Z,79.19
2019-02-17T00:25:58.819Z,79.77
2019-02-17T00:26:58.800Z,79.05
2019-02-17T00:27:58.814Z,79.57
2019-02-17T00:28:59.832Z,79.88
2019-02-17T00:29:58.762Z,79.57
2019-02-17T00:30:58.761Z,79.91
2019-02-17T00:31:58.738Z,80.54
2019-02-17T00:32:58.732Z,80.54
2019-02-17T00:33:58.791Z,80.22
2019-02-17T00:34:58.707Z,80.05
2019-02-17T00:35:58.711Z,80.57
2019-02-17T00:36:58.685Z,80.99
2019-02-17T00:37:58.682Z,80.68
2019-02-17T00:38:58.696Z,80.68
2019-02-17T00:39:58.685Z,80.92
2019-02-17T00:40:58.639Z,81.13
2019-02-17T00:41:58.631Z,81.54
2019-02-17T00:42:58.614Z,80.92
2019-02-17T00:43:58.630Z,80.71
2019-02-17T00:44:58.665Z,81.44
2019-02-17T00:45:58.587Z,81.44
2019-02-17T00:46:58.574Z,81.02
2019-02-17T00:47:58.560Z,81.54
2019-02-17T00:48:58.575Z,80.92
2019-02-17T00:49:58.550Z,81.23
2019-02-17T00:50:58.586Z,81.75
2019-02-17T00:51:58.514Z,81.85
2019-02-17T00:52:58.506Z,81.75
2019-02-17T00:53:58.516Z,81.71
2019-02-17T00:54:58.484Z,81.09
2019-02-17T00:55:58.473Z,81.51
2019-02-17T00:56:58.500Z,80.88
2019-02-17T00:57:58.447Z,80.95
2019-02-17T00:58:58.455Z,80.47
2019-02-17T00:59:58.423Z,80.95
2019-02-17T01:00:58.426Z,80.43
2019-02-17T01:01:58.417Z,80.33
2019-02-17T01:02:58.428Z,80.74
2019-02-17T01:03:58.404Z,80.60
2019-02-17T01:04:58.373Z,80.15
2019-02-17T01:05:58.371Z,79.43
2019-02-17T01:06:58.353Z,78.77
2019-02-17T01:07:58.355Z,78.36
2019-02-17T01:08:58.381Z,78.32
2019-02-17T01:09:58.319Z,78.01
2019-02-17T01:10:58.304Z,78.15
2019-02-17T01:11:58.301Z,78.15
2019-02-17T01:12:58.284Z,78.11
2019-02-17T01:13:58.298Z,78.42
2019-02-17T01:14:58.288Z,77.25
2019-02-17T01:15:58.247Z,77.08
2019-02-17T01:16:58.234Z,77.08
2019-02-17T01:17:58.225Z,76.64
2019-02-17T01:18:58.236Z,76.64
2019-02-17T01:19:58.211Z,76.53
2019-02-17T01:20:58.226Z,76.64
2019-02-17T01:21:58.177Z,77.46
2019-02-17T01:22:58.170Z,76.77
2019-02-17T01:23:58.188Z,76.77
2019-02-17T01:24:58.147Z,77.19
2019-02-17T01:25:58.135Z,78.15
2019-02-17T01:26:58.136Z,78.05
2019-02-17T01:27:58.113Z,78.36
2019-02-17T01:28:58.128Z,78.05
2019-02-17T01:29:58.098Z,78.19
2019-02-17T01:30:58.078Z,78.08
2019-02-17T01:31:58.069Z,78.39
2019-02-17T01:32:58.099Z,78.29
2019-02-17T01:33:58.073Z,78.08
2019-02-17T01:34:58.044Z,78.08
2019-02-17T01:35:58.054Z,78.70
2019-02-17T01:36:58.007Z,78.50
2019-02-17T01:37:58.365Z,78.50
2019-02-17T01:38:58.035Z,78.39
2019-02-17T01:39:58.005Z,78.39
2019-02-17T01:40:57.966Z,78.70
2019-02-17T01:41:57.962Z,78.70
2019-02-17T01:42:57.945Z,78.91
2019-02-17T01:43:57.940Z,78.81
2019-02-17T01:45:05.083Z,78.70
2019-02-17T01:46:04.969Z,78.39
2019-02-17T01:46:57.918Z,78.60
2019-02-17T01:47:58.033Z,78.33
2019-02-17T01:49:04.985Z,78.91
2019-02-17T01:50:04.974Z,78.81
2019-02-17T01:50:57.875Z,78.33
2019-02-17T01:52:05.000Z,78.95
2019-02-17T01:52:57.863Z,78.60
2019-02-17T01:53:57.839Z,78.39
2019-02-17T01:54:57.939Z,78.29
2019-02-17T01:55:57.807Z,78.70
2019-02-17T01:56:57.792Z,78.08
2019-02-17T01:57:57.884Z,78.50
2019-02-17T01:58:57.793Z,78.50
2019-02-17T01:59:57.778Z,78.70
2019-02-17T02:00:57.777Z,78.08
2019-02-17T02:01:57.730Z,78.36
2019-02-17T02:02:57.719Z,76.91
2019-02-17T02:03:57.742Z,77.53
2019-02-17T02:04:57.722Z,77.64
2019-02-17T02:05:57.689Z,78.36
2019-02-17T02:06:57.682Z,76.50
2019-02-17T02:07:57.664Z,77.26
2019-02-17T02:08:57.702Z,77.98
2019-02-17T02:09:57.664Z,78.15
2019-02-17T02:10:57.629Z,78.05
2019-02-17T02:11:57.623Z,77.22
2019-02-17T02:12:57.603Z,77.36
2019-02-17T02:13:57.607Z,78.08
2019-02-17T02:14:57.627Z,78.08
2019-02-17T02:15:57.569Z,78.15
2019-02-17T02:16:57.561Z,76.91
2019-02-17T02:17:57.548Z,76.56
2019-02-17T02:18:57.535Z,76.67
2019-02-17T02:19:57.551Z,76.39
2019-02-17T02:20:57.535Z,77.12
2019-02-17T02:21:57.508Z,77.22
2019-02-17T02:22:57.495Z,77.43
2019-02-17T02:23:57.487Z,78.15
2019-02-17T02:24:57.497Z,76.70
2019-02-17T02:25:57.471Z,76.60
2019-02-17T02:26:57.485Z,77.36
2019-02-17T02:27:57.515Z,77.84
2019-02-17T02:28:57.429Z,78.50
2019-02-17T02:29:57.439Z,77.33
2019-02-17T02:30:57.408Z,78.19
2019-02-17T02:31:57.395Z,78.08
2019-02-17T02:32:57.378Z,78.39
2019-02-17T02:33:57.399Z,78.19
2019-02-17T02:34:57.386Z,78.19
2019-02-17T02:35:57.349Z,78.08
2019-02-17T02:36:57.337Z,78.50
2019-02-17T02:37:57.326Z,78.60
2019-02-17T02:38:57.318Z,78.50
2019-02-17T02:39:57.364Z,78.39
2019-02-17T02:40:57.296Z,77.47
2019-02-17T02:41:57.291Z,77.47
2019-02-17T02:42:57.273Z,78.08
2019-02-17T02:43:57.263Z,78.50
2019-02-17T02:44:57.279Z,77.47
2019-02-17T02:45:57.276Z,78.29
2019-02-17T02:46:57.228Z,78.19
2019-02-17T02:47:57.223Z,78.08
2019-02-17T02:48:57.217Z,77.98
2019-02-17T02:49:57.222Z,78.08
2019-02-17T02:50:57.189Z,77.98
2019-02-17T02:51:57.175Z,77.98
2019-02-17T02:52:57.170Z,78.08
2019-02-17T02:53:57.146Z,78.08
2019-02-17T02:54:57.170Z,77.43
2019-02-17T02:55:57.133Z,77.12
2019-02-17T02:56:57.113Z,77.12
2019-02-17T02:57:57.110Z,77.22
2019-02-17T02:58:57.103Z,77.01
2019-02-17T02:59:57.114Z,76.81
2019-02-17T03:00:57.104Z,77.22
2019-02-17T03:01:57.057Z,77.43
2019-02-17T03:02:57.056Z,77.12
2019-02-17T03:03:57.041Z,76.70
2019-02-17T03:04:57.051Z,77.15
2019-02-17T03:05:57.013Z,78.29
2019-02-17T03:06:57.047Z,77.47
2019-02-17T03:07:56.993Z,78.60
2019-02-17T03:08:56.978Z,78.08
2019-02-17T03:09:56.997Z,78.19
2019-02-17T03:10:56.971Z,77.77
2019-02-17T03:11:56.950Z,78.08
2019-02-17T03:12:56.933Z,78.08
2019-02-17T03:13:56.946Z,78.50
2019-02-17T03:14:56.939Z,78.50
2019-02-17T03:15:56.903Z,77.77
2019-02-17T03:16:56.894Z,78.60
2019-02-17T03:17:56.883Z,78.39
2019-02-17T03:18:56.897Z,78.05
2019-02-17T03:19:56.876Z,78.19
2019-02-17T03:20:56.930Z,78.08
2019-02-17T03:21:56.846Z,78.19
2019-02-17T03:22:56.825Z,78.08
2019-02-17T03:23:56.818Z,78.43
2019-02-17T03:24:56.803Z,78.08
2019-02-17T03:25:56.849Z,78.50
2019-02-17T03:26:56.781Z,78.43
2019-02-17T03:27:56.776Z,78.39
2019-02-17T03:28:56.761Z,78.53
2019-02-17T03:30:05.173Z,78.53
2019-02-17T03:30:57.779Z,78.64
2019-02-17T03:31:56.754Z,78.74
2019-02-17T03:32:56.719Z,78.43
2019-02-17T03:33:56.705Z,78.43
2019-02-17T03:34:56.696Z,78.53
2019-02-17T03:35:56.705Z,78.64
2019-02-17T03:36:56.671Z,78.53
2019-02-17T03:37:56.693Z,78.64
2019-02-17T03:38:56.657Z,78.64
2019-02-17T03:39:56.640Z,78.64
2019-02-17T03:40:56.656Z,78.50
2019-02-17T03:41:56.610Z,78.50
2019-02-17T03:42:56.600Z,78.53
2019-02-17T03:43:56.593Z,78.85
2019-02-17T03:44:56.631Z,78.50
2019-02-17T03:45:56.597Z,78.29
2019-02-17T03:46:56.557Z,78.29
2019-02-17T03:47:56.545Z,77.94
2019-02-17T03:48:56.539Z,77.12
2019-02-17T03:49:56.525Z,76.70
2019-02-17T03:50:56.572Z,77.36
2019-02-17T03:51:56.500Z,77.77
2019-02-17T03:52:56.489Z,77.22
2019-02-17T03:53:56.485Z,76.74
2019-02-17T03:54:56.482Z,78.56
2019-02-17T03:55:56.493Z,76.81
2019-02-17T03:56:56.498Z,77.15
2019-02-17T03:57:56.442Z,78.08
2019-02-17T03:58:56.430Z,78.56
2019-02-17T03:59:56.418Z,76.70
2019-02-17T04:00:56.426Z,76.95
2019-02-17T04:01:56.390Z,77.36
2019-02-17T04:02:56.406Z,78.43
2019-02-17T04:03:56.380Z,78.12
2019-02-17T04:04:56.365Z,78.22
2019-02-17T04:05:56.384Z,78.33
2019-02-17T04:06:56.337Z,78.22
2019-02-17T04:07:56.333Z,78.08
2019-02-17T04:08:56.337Z,78.08
2019-02-17T04:09:56.299Z,77.67
2019-02-17T04:10:56.317Z,76.91
2019-02-17T04:11:56.278Z,76.53
2019-02-17T04:12:56.263Z,76.01
2019-02-17T04:13:56.255Z,76.84
2019-02-17T04:14:56.287Z,77.26
2019-02-17T04:15:56.258Z,77.15
2019-02-17T04:16:56.223Z,77.05
2019-02-17T04:17:56.222Z,77.33
2019-02-17T04:18:56.200Z,76.50
2019-02-17T04:19:56.190Z,76.56
2019-02-17T04:20:56.239Z,76.26
2019-02-17T04:21:56.161Z,75.46
2019-02-17T04:22:56.154Z,75.78
2019-02-17T04:23:56.152Z,75.67
2019-02-17T04:24:56.137Z,75.53
2019-02-17T04:25:56.161Z,75.63
2019-02-17T04:26:56.119Z,75.36
2019-02-17T04:27:56.140Z,75.67
2019-02-17T04:28:56.087Z,76.18
2019-02-17T04:29:56.077Z,76.91
2019-02-17T04:30:56.822Z,76.18
2019-02-17T04:31:56.067Z,76.50
2019-02-17T04:32:56.042Z,75.91
2019-02-17T04:33:56.048Z,76.43
2019-02-17T04:34:56.018Z,76.74
2019-02-17T04:35:56.027Z,76.95
2019-02-17T04:36:56.000Z,76.43
2019-02-17T04:37:55.993Z,76.22
2019-02-17T04:38:55.972Z,76.32
2019-02-17T04:39:56.013Z,76.18
2019-02-17T04:40:55.974Z,75.36
2019-02-17T04:41:55.939Z,76.43
2019-02-17T04:42:55.931Z,75.70
2019-02-17T04:43:55.920Z,76.12
2019-02-17T04:44:55.911Z,76.78
2019-02-17T04:45:55.959Z,76.78
2019-02-17T04:46:55.888Z,77.09
2019-02-17T04:47:55.873Z,76.78
2019-02-17T04:48:55.858Z,77.39
2019-02-17T04:49:55.849Z,77.70
2019-02-17T04:50:55.865Z,77.64
2019-02-17T04:51:55.845Z,77.70
2019-02-17T04:52:55.823Z,77.74
2019-02-17T04:53:55.813Z,77.39
2019-02-17T04:54:55.795Z,77.19
2019-02-17T04:55:55.806Z,76.15
2019-02-17T04:56:55.774Z,76.43
2019-02-17T04:57:55.805Z,76.67
2019-02-17T04:58:55.772Z,76.67
2019-02-17T04:59:55.742Z,75.81
2019-02-17T05:00:55.730Z,76.01
2019-02-17T05:01:55.740Z,75.81
2019-02-17T05:02:55.715Z,75.26
2019-02-17T05:03:55.692Z,75.36
2019-02-17T05:04:55.685Z,74.95
2019-02-17T05:05:55.780Z,74.02
2019-02-17T05:06:55.689Z,74.12
2019-02-17T05:07:55.649Z,74.12
2019-02-17T05:08:55.638Z,74.12
2019-02-17T05:09:55.630Z,74.02
2019-02-17T05:10:55.627Z,73.91
2019-02-17T05:11:55.668Z,74.36
2019-02-17T05:12:55.601Z,76.36
2019-02-17T05:13:55.581Z,76.40
2019-02-17T05:14:55.576Z,77.01
2019-02-17T05:15:55.568Z,76.05
2019-02-17T05:16:55.571Z,76.36
2019-02-17T05:17:55.568Z,75.74
2019-02-17T05:18:55.524Z,76.36
2019-02-17T05:19:55.514Z,77.12
2019-02-17T05:20:55.511Z,76.91
2019-02-17T05:21:55.531Z,76.84
2019-02-17T05:22:55.483Z,78.50
2019-02-17T05:23:55.505Z,77.26
2019-02-17T05:24:55.457Z,78.44
2019-02-17T05:25:55.449Z,78.47
2019-02-17T05:26:55.471Z,78.61
2019-02-17T05:27:55.425Z,79.65
2019-02-17T05:28:56.621Z,80.14
2019-02-17T05:29:55.425Z,80.73
2019-02-17T05:30:55.405Z,80.69
2019-02-17T05:31:55.426Z,82.15
2019-02-17T05:32:55.378Z,82.46
2019-02-17T05:33:55.362Z,82.35
2019-02-17T05:34:55.350Z,81.94
2019-02-17T05:35:55.356Z,82.18
2019-02-17T05:36:55.405Z,82.84
2019-02-17T05:37:55.326Z,82.84
2019-02-17T05:39:01.821Z,84.20
2019-02-17T05:39:55.297Z,84.30
2019-02-17T05:40:55.284Z,84.92
2019-02-17T05:41:55.293Z,85.34
2019-02-17T05:42:55.302Z,84.99
2019-02-17T05:43:55.267Z,83.53
2019-02-17T05:44:55.253Z,83.01
2019-02-17T05:45:55.232Z,83.12
2019-02-17T05:46:55.246Z,84.43
2019-02-17T05:47:55.215Z,82.25
2019-02-17T05:48:55.248Z,81.94
2019-02-17T05:49:55.189Z,81.94
2019-02-17T05:50:55.180Z,82.46
2019-02-17T05:51:55.194Z,82.25
2019-02-17T05:52:55.155Z,82.04
2019-02-17T05:53:55.142Z,81.52
2019-02-17T05:54:55.171Z,81.94
2019-02-17T05:55:55.126Z,81.90
2019-02-17T05:56:55.132Z,81.94
2019-02-17T05:57:55.104Z,82.35
2019-02-17T05:58:55.095Z,82.04
2019-02-17T05:59:55.080Z,82.73
2019-02-17T06:01:03.262Z,81.38
2019-02-17T06:01:56.082Z,80.62
2019-02-17T06:02:55.048Z,80.31
2019-02-17T06:03:55.035Z,80.21
2019-02-17T06:04:55.026Z,81.18
2019-02-17T06:05:55.030Z,81.49
2019-02-17T06:06:55.077Z,80.83
2019-02-17T06:07:54.993Z,80.16
2019-02-17T06:08:54.989Z,79.79
2019-02-17T06:09:54.977Z,79.34
2019-02-17T06:10:54.958Z,79.44
2019-02-17T06:11:55.027Z,79.24
2019-02-17T06:12:54.983Z,79.34
2019-02-17T06:13:54.932Z,79.24
2019-02-17T06:14:54.924Z,79.38
2019-02-17T06:15:54.904Z,80.24
2019-02-17T06:16:54.914Z,81.52
2019-02-17T06:17:54.960Z,82.01
2019-02-17T06:18:54.873Z,81.35
2019-02-17T06:19:54.891Z,80.62
2019-02-17T06:20:54.848Z,80.76
2019-02-17T06:21:54.864Z,81.73
2019-02-17T06:22:54.830Z,81.38
2019-02-17T06:23:54.823Z,81.90
2019-02-17T06:24:54.812Z,81.73
2019-02-17T06:25:54.810Z,82.01
2019-02-17T06:26:54.817Z,81.84
2019-02-17T06:27:54.771Z,82.04
2019-02-17T06:28:54.764Z,82.15
2019-02-17T06:29:54.760Z,82.81
2019-02-17T06:30:54.739Z,82.46
2019-02-17T06:31:54.794Z,82.87
2019-02-17T06:32:54.717Z,82.15
2019-02-17T06:33:54.715Z,82.35
2019-02-17T06:34:54.703Z,82.67
2019-02-17T06:35:54.691Z,82.11
2019-02-17T06:36:54.712Z,81.38
2019-02-17T06:37:54.667Z,81.28
2019-02-17T06:38:54.691Z,81.94
2019-02-17T06:39:54.643Z,81.94
2019-02-17T06:40:54.662Z,82.18
2019-02-17T06:41:54.630Z,82.64
2019-02-17T06:42:54.636Z,83.68
2019-02-17T06:43:54.600Z,84.61
2019-02-17T06:44:54.599Z,84.55
2019-02-17T06:45:54.622Z,83.78
2019-02-17T06:46:54.579Z,83.68
2019-02-17T06:47:54.583Z,84.16
2019-02-17T06:48:54.548Z,83.64
2019-02-17T06:49:54.533Z,84.05
2019-02-17T06:50:54.525Z,84.37
2019-02-17T06:51:54.561Z,83.68
2019-02-17T06:52:54.525Z,84.27
2019-02-17T06:53:54.497Z,83.39
2019-02-17T06:54:54.479Z,82.87
2019-02-17T06:55:54.469Z,82.46
2019-02-17T06:56:54.465Z,82.87
2019-02-17T06:57:54.521Z,83.04
2019-02-17T06:58:54.434Z,82.56
2019-02-17T06:59:54.425Z,82.77
2019-02-17T07:00:54.410Z,83.08
2019-02-17T07:01:54.400Z,83.11
2019-02-17T07:02:54.413Z,81.51
2019-02-17T07:03:54.411Z,80.47
2019-02-17T07:04:54.390Z,80.27
2019-02-17T07:05:56.631Z,78.96
2019-02-17T07:06:54.380Z,78.19
2019-02-17T07:07:54.365Z,77.01
2019-02-17T07:08:54.330Z,76.81
2019-02-17T07:09:54.336Z,76.46
2019-02-17T07:10:54.308Z,75.74
2019-02-17T07:11:56.792Z,75.84
2019-02-17T07:12:54.309Z,75.53
2019-02-17T07:13:54.270Z,75.19
2019-02-17T07:14:54.259Z,74.46
2019-02-17T07:15:54.271Z,74.67
2019-02-17T07:16:54.236Z,74.77
2019-02-17T07:17:54.250Z,74.46
2019-02-17T07:18:54.223Z,74.67
2019-02-17T07:19:54.211Z,74.98
2019-02-17T07:20:54.199Z,75.09
2019-02-17T07:21:54.219Z,74.77
2019-02-17T07:22:54.196Z,74.88
2019-02-17T07:23:54.159Z,74.98
2019-02-17T07:24:54.160Z,75.50
2019-02-17T07:25:54.148Z,75.19
2019-02-17T07:26:54.126Z,75.29
2019-02-17T07:27:54.190Z,75.50
2019-02-17T07:28:54.107Z,75.81
2019-02-17T07:29:54.095Z,75.57
2019-02-17T07:30:54.087Z,74.53
2019-02-17T07:31:54.078Z,74.95
2019-02-17T07:33:01.185Z,74.91
2019-02-17T07:33:54.098Z,74.02
2019-02-17T07:34:54.048Z,73.88
2019-02-17T07:35:54.043Z,73.67
2019-02-17T07:37:01.101Z,73.12
2019-02-17T07:38:01.132Z,73.02
2019-02-17T07:39:01.945Z,73.02
2019-02-17T07:40:01.056Z,73.77
2019-02-17T07:41:01.038Z,73.67
2019-02-17T07:41:53.967Z,73.88
2019-02-17T07:42:54.018Z,73.67
2019-02-17T07:43:53.968Z,73.26
2019-02-17T07:44:53.942Z,73.43
2019-02-17T07:45:54.032Z,73.33
2019-02-17T07:46:53.942Z,72.91
2019-02-17T07:47:53.957Z,73.74
2019-02-17T07:48:53.893Z,72.61
2019-02-17T07:49:53.922Z,72.81
2019-02-17T07:50:53.894Z,72.81
2019-02-17T07:51:53.864Z,72.40
2019-02-17T07:52:53.876Z,72.09
2019-02-17T07:53:53.888Z,72.78
2019-02-17T07:54:53.947Z,71.98
2019-02-17T07:55:53.846Z,72.09
2019-02-17T07:56:53.793Z,72.19
2019-02-17T07:57:53.859Z,71.67
2019-02-17T07:58:53.773Z,72.67
2019-02-17T07:59:53.759Z,72.67
2019-02-17T08:00:53.794Z,72.78
2019-02-17T08:01:53.742Z,72.44
2019-02-17T08:02:53.757Z,72.64
2019-02-17T08:03:53.715Z,72.74
2019-02-17T08:04:53.707Z,72.85
2019-02-17T08:05:53.722Z,72.13
2019-02-17T08:06:53.684Z,71.71
2019-02-17T08:07:53.707Z,71.78
2019-02-17T08:08:53.667Z,71.26
2019-02-17T08:09:53.650Z,70.34
2019-02-17T08:11:03.485Z,70.54
2019-02-17T08:11:54.625Z,69.59
2019-02-17T08:12:53.678Z,70.72
2019-02-17T08:13:53.605Z,70.62
2019-02-17T08:14:53.591Z,70.10
2019-02-17T08:15:53.585Z,69.59
2019-02-17T08:16:53.568Z,69.24
2019-02-17T08:17:53.588Z,69.65
2019-02-17T08:18:53.586Z,69.65
2019-02-17T08:19:53.538Z,69.14
2019-02-17T08:20:53.530Z,68.93
2019-02-17T08:21:53.515Z,68.90
2019-02-17T08:22:53.541Z,67.97
2019-02-17T08:23:55.069Z,68.80
2019-02-17T08:24:53.508Z,68.70
2019-02-17T08:25:53.481Z,67.84
2019-02-17T08:26:53.463Z,67.40
2019-02-17T08:27:53.446Z,66.47
2019-02-17T08:28:53.470Z,66.27
2019-02-17T08:29:53.425Z,66.44
2019-02-17T08:30:53.433Z,66.44
2019-02-17T08:31:56.142Z,66.54
2019-02-17T08:32:53.396Z,65.72
2019-02-17T08:33:53.403Z,64.90
2019-02-17T08:34:53.373Z,64.25
2019-02-17T08:35:53.356Z,64.87
2019-02-17T08:36:53.399Z,63.84
2019-02-17T08:37:53.340Z,64.04
2019-02-17T08:38:53.350Z,63.64
2019-02-17T08:39:53.320Z,63.29
2019-02-17T08:40:53.312Z,63.50
2019-02-17T08:41:53.291Z,63.20
2019-02-17T08:42:53.308Z,62.88
2019-02-17T08:43:53.300Z,62.14
2019-02-17T08:44:53.267Z,62.45
2019-02-17T08:45:53.244Z,62.96
2019-02-17T08:46:53.235Z,62.73
2019-02-17T08:47:53.224Z,62.31
2019-02-17T08:48:53.278Z,62.52
2019-02-17T08:49:53.237Z,61.87
2019-02-17T08:50:53.198Z,61.26
2019-02-17T08:51:53.183Z,61.77
2019-02-17T08:52:53.173Z,61.05
2019-02-17T08:53:53.183Z,61.16
2019-02-17T08:54:53.177Z,61.02
2019-02-17T08:55:53.137Z,60.21
2019-02-17T08:56:53.133Z,60.17
2019-02-17T08:57:53.114Z,59.05
2019-02-17T08:58:53.130Z,59.97
2019-02-17T08:59:53.095Z,58.33
2019-02-17T09:00:53.105Z,59.15
2019-02-17T09:01:53.082Z,59.12
2019-02-17T09:02:53.077Z,58.10
2019-02-17T09:03:53.088Z,58.92
2019-02-17T09:04:53.044Z,57.59
2019-02-17T09:05:53.025Z,58.92
2019-02-17T09:06:53.020Z,58.00
2019-02-17T09:07:53.006Z,58.10
2019-02-17T09:08:56.080Z,57.48
2019-02-17T09:09:52.978Z,58.00
2019-02-17T09:10:52.974Z,57.38
2019-02-17T09:11:52.955Z,56.95
2019-02-17T09:12:52.954Z,57.66
2019-02-17T09:13:52.964Z,57.15
2019-02-17T09:14:52.976Z,57.25
2019-02-17T09:15:52.977Z,55.90
2019-02-17T09:16:52.904Z,55.51
2019-02-17T09:17:52.893Z,56.71
2019-02-17T09:18:52.900Z,57.66
2019-02-17T09:19:52.867Z,55.92
2019-02-17T09:20:52.904Z,56.02
2019-02-17T09:21:52.845Z,56.84
2019-02-17T09:22:52.842Z,57.35
2019-02-17T09:23:53.555Z,57.56
2019-02-17T09:24:52.813Z,57.05
2019-02-17T09:25:52.815Z,56.54
2019-02-17T09:26:52.829Z,57.35
2019-02-17T09:27:52.783Z,56.74
2019-02-17T09:28:52.802Z,57.66
2019-02-17T09:29:52.764Z,56.74
2019-02-17T09:30:52.748Z,57.87
2019-02-17T09:31:52.746Z,57.23
2019-02-17T09:32:52.755Z,57.12
2019-02-17T09:33:52.743Z,57.33
2019-02-17T09:34:52.710Z,57.23
2019-02-17T09:35:52.688Z,58.12
2019-02-17T09:36:52.678Z,57.23
2019-02-17T09:37:52.673Z,57.02
2019-02-17T09:38:53.592Z,57.20
2019-02-17T09:39:52.659Z,57.64
2019-02-17T09:40:52.636Z,57.30
2019-02-17T09:41:52.632Z,56.79
2019-02-17T09:42:52.613Z,56.38
2019-02-17T09:43:52.630Z,55.97
2019-02-17T09:44:52.592Z,55.87
2019-02-17T09:45:52.613Z,57.48
2019-02-17T09:46:52.568Z,55.94
2019-02-17T09:47:52.555Z,55.64
2019-02-17T09:48:52.577Z,55.43
2019-02-17T09:49:52.542Z,54.39
2019-02-17T09:50:52.537Z,53.67
2019-02-17T09:51:52.513Z,53.77
2019-02-17T09:52:52.508Z,53.57
2019-02-17T09:53:52.554Z,54.39
2019-02-17T09:54:52.489Z,54.49
2019-02-17T09:55:52.480Z,54.77
2019-02-17T09:56:52.468Z,54.05
2019-02-17T09:57:52.443Z,54.57
2019-02-17T09:58:52.458Z,54.97
2019-02-17T09:59:52.451Z,53.44
2019-02-17T10:00:52.429Z,53.34
2019-02-17T10:01:52.406Z,53.34
2019-02-17T10:02:52.393Z,53.13
2019-02-17T10:03:52.392Z,53.75
2019-02-17T10:04:52.394Z,53.75
2019-02-17T10:05:52.356Z,52.83
2019-02-17T10:06:52.396Z,53.42
2019-02-17T10:07:52.344Z,53.62
2019-02-17T10:08:52.322Z,53.42
2019-02-17T10:09:52.337Z,53.72
2019-02-17T10:10:52.302Z,52.70
2019-02-17T10:11:52.292Z,52.39
2019-02-17T10:12:52.319Z,52.88
2019-02-17T10:13:52.267Z,52.58
2019-02-17T10:14:52.281Z,52.37
2019-02-17T10:15:52.249Z,52.78
2019-02-17T10:16:52.228Z,52.17
2019-02-17T10:17:52.222Z,52.47
2019-02-17T10:18:52.278Z,53.29
2019-02-17T10:19:52.240Z,52.78
2019-02-17T10:20:52.187Z,52.88
2019-02-17T10:21:52.180Z,52.47
2019-02-17T10:22:52.165Z,52.67
2019-02-17T10:23:52.158Z,51.76
2019-02-17T10:24:52.225Z,52.06
2019-02-17T10:25:52.134Z,51.53
2019-02-17T10:26:52.127Z,53.16
2019-02-17T10:27:52.109Z,52.45
2019-02-17T10:28:52.111Z,52.45
2019-02-17T10:29:52.115Z,52.25
2019-02-17T10:30:52.131Z,52.86
2019-02-17T10:31:52.066Z,52.14
2019-02-17T10:32:52.069Z,51.53
2019-02-17T10:33:52.044Z,52.25
2019-02-17T10:34:52.055Z,52.14
2019-02-17T10:35:52.021Z,53.06
2019-02-17T10:36:52.047Z,52.65
2019-02-17T10:37:52.003Z,51.61
2019-02-17T10:38:51.997Z,51.40
2019-02-17T10:39:51.999Z,51.61
2019-02-17T10:40:51.974Z,51.51
2019-02-17T10:41:51.966Z,51.81
2019-02-17T10:42:51.970Z,52.12
2019-02-17T10:43:51.939Z,51.61
2019-02-17T10:44:51.944Z,51.89
2019-02-17T10:45:51.909Z,50.36
2019-02-17T10:46:51.906Z,49.98
2019-02-17T10:47:51.920Z,50.38
2019-02-17T10:48:51.878Z,51.81
2019-02-17T10:49:51.895Z,50.99
2019-02-17T10:50:51.860Z,51.38
2019-02-17T10:51:51.842Z,51.79
2019-02-17T10:52:51.831Z,51.68
2019-02-17T10:53:51.821Z,50.87
2019-02-17T10:54:51.855Z,50.36
2019-02-17T10:55:51.802Z,51.17
2019-02-17T10:56:51.790Z,51.68
2019-02-17T10:57:51.776Z,50.56
2019-02-17T10:58:51.773Z,50.54
2019-02-17T10:59:51.776Z,50.44
2019-02-17T11:00:51.766Z,51.17
2019-02-17T11:01:51.732Z,52.37
2019-02-17T11:02:51.734Z,51.35
2019-02-17T11:03:51.714Z,51.76
2019-02-17T11:04:51.722Z,50.03
2019-02-17T11:05:51.686Z,49.83
2019-02-17T11:06:51.682Z,49.73
2019-02-17T11:07:51.665Z,49.73
2019-02-17T11:08:51.675Z,49.90
2019-02-17T11:09:51.674Z,50.01
2019-02-17T11:10:51.635Z,48.79
2019-02-17T11:11:51.625Z,49.50
2019-02-17T11:12:51.613Z,50.42
2019-02-17T11:13:51.597Z,49.58
2019-02-17T11:14:51.656Z,48.89
2019-02-17T11:15:51.578Z,50.31
2019-02-17T11:16:51.568Z,49.88
2019-02-17T11:17:51.564Z,49.68
2019-02-17T11:18:52.018Z,49.07
2019-02-17T11:19:51.560Z,49.07
2019-02-17T11:20:51.555Z,48.76
2019-02-17T11:21:51.505Z,49.98
2019-02-17T11:22:51.522Z,49.15
2019-02-17T11:23:51.496Z,48.33
2019-02-17T11:24:51.506Z,49.25
2019-02-17T11:25:51.465Z,48.23
2019-02-17T11:26:51.457Z,48.54
2019-02-17T11:27:51.440Z,49.15
2019-02-17T11:28:51.466Z,48.03
2019-02-17T11:29:51.438Z,49.25
2019-02-17T11:30:51.407Z,49.45
2019-02-17T11:31:51.401Z,48.74
2019-02-17T11:32:58.012Z,48.94
2019-02-17T11:33:52.377Z,49.25
2019-02-17T11:34:51.408Z,48.94
2019-02-17T11:35:51.358Z,48.00
2019-02-17T11:36:51.344Z,48.21
2019-02-17T11:37:51.334Z,48.72
2019-02-17T11:38:51.319Z,47.90
2019-02-17T11:39:51.330Z,48.61
2019-02-17T11:40:51.343Z,48.41
2019-02-17T11:41:51.293Z,48.11
2019-02-17T11:42:51.276Z,48.41
2019-02-17T11:43:51.262Z,48.00
2019-02-17T11:44:51.276Z,48.08
2019-02-17T11:45:51.240Z,48.39
2019-02-17T11:46:51.277Z,48.28
2019-02-17T11:47:51.248Z,48.21
2019-02-17T11:48:51.202Z,47.98
2019-02-17T11:49:51.193Z,47.88
2019-02-17T11:50:51.223Z,48.80
2019-02-17T11:51:51.172Z,49.10
2019-02-17T11:52:51.188Z,49.61
2019-02-17T11:53:51.152Z,48.49
2019-02-17T11:54:51.139Z,47.78
2019-02-17T11:55:51.156Z,48.28
2019-02-17T11:56:51.122Z,48.49
2019-02-17T11:57:51.109Z,47.55
2019-02-17T11:58:51.099Z,48.06
2019-02-17T11:59:51.173Z,48.47
2019-02-17T12:00:51.099Z,48.47
2019-02-17T12:01:51.060Z,49.38
2019-02-17T12:02:51.050Z,49.66
2019-02-17T12:03:51.035Z,49.48
2019-02-17T12:04:51.030Z,49.76
2019-02-17T12:05:51.079Z,49.46
2019-02-17T12:06:51.009Z,49.26
2019-02-17T12:07:51.008Z,49.05
2019-02-17T12:08:50.984Z,49.36
2019-02-17T12:09:50.971Z,47.74
2019-02-17T12:10:50.994Z,47.30
2019-02-17T12:11:50.949Z,46.59
2019-02-17T12:12:50.992Z,46.19
2019-02-17T12:13:50.926Z,46.09
2019-02-17T12:14:50.921Z,45.76
2019-02-17T12:15:50.928Z,46.29
2019-02-17T12:16:50.900Z,46.59
2019-02-17T12:17:50.889Z,47.10
2019-02-17T12:18:50.900Z,46.39
2019-02-17T12:19:50.856Z,45.89
2019-02-17T12:20:50.887Z,46.29
2019-02-17T12:21:50.835Z,45.36
2019-02-17T12:22:50.831Z,45.37
2019-02-17T12:23:50.819Z,45.37
2019-02-17T12:24:50.831Z,45.68
2019-02-17T12:25:50.836Z,45.28
2019-02-17T12:26:50.790Z,45.05
2019-02-17T12:27:50.776Z,44.65
2019-02-17T12:28:50.760Z,45.76
2019-02-17T12:29:50.757Z,45.97
2019-02-17T12:30:50.759Z,45.76
2019-02-17T12:31:50.755Z,45.74
2019-02-17T12:32:50.710Z,45.54
2019-02-17T12:33:50.725Z,46.45
2019-02-17T12:34:50.696Z,46.86
2019-02-17T12:35:50.704Z,45.94
2019-02-17T12:36:50.670Z,44.62
2019-02-17T12:37:50.660Z,45.36
2019-02-17T12:38:50.729Z,45.25
2019-02-17T12:39:50.640Z,45.64
2019-02-17T12:40:50.652Z,45.03
2019-02-17T12:41:50.623Z,44.12
2019-02-17T12:42:51.191Z,44.12
2019-02-17T12:43:50.613Z,44.42
2019-02-17T12:44:50.620Z,44.93
2019-02-17T12:45:50.594Z,42.98
2019-02-17T12:46:50.559Z,44.32
2019-02-17T12:47:57.538Z,44.32
2019-02-17T12:48:51.541Z,44.62
2019-02-17T12:49:50.527Z,44.22
2019-02-17T12:50:50.618Z,44.52
2019-02-17T12:51:50.509Z,44.32
2019-02-17T12:52:50.498Z,44.62